Time;durP1;ratioP1;P1;durP2;ratioP2;P2;SDS_P1;SDS_P2;PMS_P1;PMS_P2;Temp;Humidity;BMP_temperature;BMP_pressure;BME280_temperature;BME280_humidity;BME280_pressure;Samples;Min_cycle;Max_cycle;Signal;HPM_P1;HPM_P2
2022/11/06 00:00:53;;;;;;;23.23;14.25;;;;;;;5.55;100.00;96715.28;5041151;28;20102;-78
2022/11/06 00:03:20;;;;;;;26.65;14.48;;;;;;;5.55;100.00;96715.28;5054014;28;20059;-78
2022/11/06 00:08:35;;;;;;;20.55;13.25;;;;;;;5.49;100.00;96718.00;5048659;28;20514;-78
2022/11/06 00:11:02;;;;;;;21.38;12.88;;;;;;;5.48;100.00;96718.25;5035094;28;20054;-78
2022/11/06 00:13:29;;;;;;;23.67;13.45;;;;;;;5.43;100.00;96715.59;5035352;28;20041;-80
2022/11/06 00:15:55;;;;;;;25.60;13.35;;;;;;;5.40;100.00;96711.56;5039576;28;20043;-79
2022/11/06 00:18:25;;;;;;;23.35;13.55;;;;;;;5.36;100.00;96715.06;5049757;28;20132;-79
2022/11/06 00:20:52;;;;;;;23.15;12.80;;;;;;;5.34;100.00;96709.97;5045412;28;20071;-79
2022/11/06 00:23:21;;;;;;;27.55;13.88;;;;;;;5.34;100.00;96714.56;5056624;28;20033;-78
2022/11/06 00:25:51;;;;;;;23.80;12.10;;;;;;;5.31;100.00;96710.50;5045849;28;20060;-77
2022/11/06 00:28:18;;;;;;;34.63;12.10;;;;;;;5.29;100.00;96720.78;5035023;28;20065;-77
2022/11/06 00:30:45;;;;;;;25.02;13.60;;;;;;;5.26;100.00;96718.63;5035023;28;20042;-77
2022/11/06 00:33:12;;;;;;;34.13;13.27;;;;;;;5.24;100.00;96716.19;5033754;28;20053;-79
2022/11/06 00:35:43;;;;;;;89.05;39.00;;;;;;;5.22;100.00;96714.88;5034362;28;20510;-77
2022/11/06 00:38:10;;;;;;;20.20;12.57;;;;;;;5.20;100.00;96719.72;5033981;28;20047;-79
2022/11/06 00:40:36;;;;;;;21.38;12.43;;;;;;;5.19;100.00;96712.69;5035348;28;20107;-80
2022/11/06 00:43:04;;;;;;;22.15;13.10;;;;;;;5.14;100.00;96710.03;5034872;28;20056;-79
2022/11/06 00:45:31;;;;;;;21.83;12.45;;;;;;;5.11;100.00;96700.56;5035718;28;20041;-79
2022/11/06 00:47:57;;;;;;;23.88;12.45;;;;;;;5.08;100.00;96700.31;5034856;28;20056;-79
2022/11/06 00:50:25;;;;;;;24.67;11.95;;;;;;;5.03;100.00;96694.94;5034494;28;20055;-79
2022/11/06 00:52:52;;;;;;;27.90;16.88;;;;;;;5.02;100.00;96701.41;5035062;28;20460;-79
2022/11/06 00:55:19;;;;;;;22.52;12.68;;;;;;;5.01;100.00;96697.09;5032641;28;20045;-79
2022/11/06 00:57:46;;;;;;;22.73;12.27;;;;;;;5.02;100.00;96693.31;5035251;28;20041;-79
2022/11/06 01:00:16;;;;;;;23.50;12.93;;;;;;;5.00;100.00;96692.78;5033475;28;20050;-78
2022/11/06 01:02:43;;;;;;;22.88;12.05;;;;;;;4.92;100.00;96686.88;5034279;28;20041;-79
2022/11/06 01:05:10;;;;;;;20.75;12.27;;;;;;;4.89;100.00;96692.00;5033566;28;20052;-77
2022/11/06 01:07:37;;;;;;;23.98;14.30;;;;;;;4.83;100.00;96695.78;5035867;28;20042;-78
2022/11/06 01:10:04;;;;;;;22.90;13.00;;;;;;;4.77;100.00;96703.06;5036052;28;20049;-77
2022/11/06 01:12:32;;;;;;;20.35;12.07;;;;;;;4.78;100.00;96701.19;5032527;28;20041;-78
2022/11/06 01:14:58;;;;;;;23.05;12.52;;;;;;;4.80;100.00;96697.13;5042393;28;20041;-79
2022/11/06 01:17:27;;;;;;;24.50;14.15;;;;;;;4.83;100.00;96699.28;5033512;28;20068;-79
2022/11/06 01:19:54;;;;;;;30.20;14.02;;;;;;;4.82;100.00;96686.88;5034376;28;20045;-78
2022/11/06 01:22:21;;;;;;;28.98;15.35;;;;;;;4.78;100.00;96691.19;5015520;28;20172;-78
2022/11/06 01:24:48;;;;;;;27.42;13.85;;;;;;;4.77;100.00;96692.28;5033745;28;20129;-78
2022/11/06 01:27:14;;;;;;;29.23;14.77;;;;;;;4.70;100.00;96697.97;5033327;28;20073;-79
2022/11/06 01:29:42;;;;;;;34.20;16.65;;;;;;;4.71;100.00;96698.78;5032986;28;20133;-77
2022/11/06 01:32:09;;;;;;;50.10;15.48;;;;;;;4.76;100.00;96687.16;5032421;28;20080;-78
2022/11/06 01:34:37;;;;;;;44.65;14.80;;;;;;;4.80;100.00;96689.03;5033513;28;20067;-78
2022/11/06 01:37:04;;;;;;;41.22;14.75;;;;;;;4.81;100.00;96693.38;5032886;28;20046;-79
2022/11/06 01:39:31;;;;;;;53.55;15.90;;;;;;;4.82;100.00;96686.88;5033091;28;20056;-80
2022/11/06 01:41:58;;;;;;;33.40;14.95;;;;;;;4.82;100.00;96686.88;5036214;28;20045;-78
2022/11/06 01:45:16;;;;;;;26.08;13.25;;;;;;;4.83;100.00;96674.19;5052872;28;20045;-78
2022/11/06 01:47:43;;;;;;;23.77;13.00;;;;;;;4.83;100.00;96676.91;5038210;28;20046;-78
2022/11/06 01:50:14;;;;;;;24.60;14.07;;;;;;;4.80;100.00;96672.03;5042295;28;20034;-77
2022/11/06 01:52:41;;;;;;;32.90;13.38;;;;;;;4.77;100.00;96670.69;5044248;28;20060;-78
2022/11/06 01:55:14;;;;;;;23.92;13.27;;;;;;;4.80;100.00;96672.84;5039465;28;20544;-79
2022/11/06 01:57:41;;;;;;;27.33;12.80;;;;;;;4.82;100.00;96665.28;5035397;28;20546;-78
2022/11/06 02:00:09;;;;;;;25.60;14.00;;;;;;;4.82;100.00;96670.69;5033994;28;20500;-79
2022/11/06 02:02:37;;;;;;;24.75;13.48;;;;;;;4.84;100.00;96667.72;5035048;28;20061;-79
2022/11/06 02:05:04;;;;;;;23.88;12.95;;;;;;;4.78;100.00;96656.13;5033376;28;20048;-81
2022/11/06 02:07:34;;;;;;;44.65;19.73;;;;;;;4.81;100.00;96654.78;5034721;28;20065;-79
2022/11/06 02:10:00;;;;;;;40.00;11.48;;;;;;;4.81;100.00;96658.28;5036384;28;20045;-78
2022/11/06 02:12:38;;;;;;;36.72;12.25;;;;;;;4.83;100.00;96664.22;5034899;28;20045;-79
2022/11/06 02:15:12;;;;;;;111.40;50.75;;;;;;;4.83;100.00;96664.22;5023854;28;20386;-78
2022/11/06 02:17:56;;;;;;;24.77;10.55;;;;;;;4.82;100.00;96653.69;5036211;28;20041;-78
2022/11/06 02:20:30;;;;;;;43.53;11.23;;;;;;;4.81;100.00;96658.28;5036155;28;20049;-78
2022/11/06 02:23:30;;;;;;;30.25;10.93;;;;;;;4.78;100.00;96653.44;5036780;28;20057;-79
2022/11/06 02:26:08;;;;;;;46.90;18.20;;;;;;;4.79;100.00;96654.22;5036757;28;20041;-78
2022/11/06 02:28:39;;;;;;;32.72;13.10;;;;;;;4.79;100.00;96649.63;5035945;28;20112;-80
2022/11/06 02:31:12;;;;;;;25.65;9.90;;;;;;;4.77;100.00;96648.31;5035837;28;20120;-80
2022/11/06 02:33:47;;;;;;;31.48;7.75;;;;;;;4.75;100.00;96642.38;5036655;28;20408;-79
2022/11/06 02:36:18;;;;;;;28.17;10.65;;;;;;;4.73;100.00;96650.75;5045617;28;20053;-79
2022/11/06 02:38:50;;;;;;;19.65;11.10;;;;;;;4.69;100.00;96644.28;5049718;28;20061;-78
2022/11/06 02:41:20;;;;;;;19.27;10.35;;;;;;;4.66;100.00;96651.03;5050758;28;20117;-78
2022/11/06 02:43:54;;;;;;;18.50;10.48;;;;;;;4.62;100.00;96646.44;5046719;28;20041;-78
2022/11/06 02:46:27;;;;;;;14.15;8.10;;;;;;;4.60;100.00;96646.72;5040289;28;20048;-79
2022/11/06 02:48:58;;;;;;;15.73;8.88;;;;;;;4.56;99.89;96644.84;5019049;28;20050;-79
2022/11/06 02:51:28;;;;;;;17.05;9.15;;;;;;;4.51;100.00;96648.34;5017487;28;20121;-78
2022/11/06 02:54:02;;;;;;;18.17;9.23;;;;;;;4.52;100.00;96643.78;5017958;28;20046;-78
2022/11/06 02:56:33;;;;;;;18.02;9.85;;;;;;;4.54;100.00;96633.50;5036205;28;20076;-78
2022/11/06 02:59:05;;;;;;;16.52;9.20;;;;;;;4.54;100.00;96634.34;5037841;28;20045;-79
2022/11/06 03:01:37;;;;;;;11.38;6.90;;;;;;;4.54;100.00;96636.19;5038112;28;20041;-78
2022/11/06 03:04:11;;;;;;;16.30;9.77;;;;;;;4.56;100.00;96634.06;5037354;28;20077;-81
2022/11/06 03:06:42;;;;;;;17.67;9.85;;;;;;;4.59;100.00;96638.91;5037789;28;20424;-79
2022/11/06 03:09:15;;;;;;;18.58;10.32;;;;;;;4.61;100.00;96636.75;5037085;28;20048;-77
2022/11/06 03:11:42;;;;;;;18.77;10.20;;;;;;;4.62;100.00;96632.97;5038811;28;20049;-79
2022/11/06 03:14:18;;;;;;;19.05;10.60;;;;;;;4.64;100.00;96630.78;5050893;28;20310;-79
2022/11/06 03:16:53;;;;;;;16.67;10.13;;;;;;;4.64;99.37;96636.19;5020731;28;20068;-76
2022/11/06 03:19:26;;;;;;;14.40;8.63;;;;;;;4.61;99.24;96634.06;5037071;28;20049;-77
2022/11/06 03:22:01;;;;;;;16.55;9.05;;;;;;;4.59;98.70;96633.50;5036598;28;20052;-78
2022/11/06 03:24:32;;;;;;;17.70;9.60;;;;;;;4.56;98.25;96628.66;5025962;28;20407;-78
2022/11/06 03:27:02;;;;;;;16.88;9.43;;;;;;;4.53;98.62;96623.81;5034779;28;20103;-78
2022/11/06 03:29:39;;;;;;;16.08;8.77;;;;;;;4.49;99.18;96633.50;5035915;28;20038;-79
2022/11/06 03:32:11;;;;;;;15.95;9.45;;;;;;;4.47;99.33;96625.72;5037281;28;20049;-78
2022/11/06 03:34:44;;;;;;;17.25;9.32;;;;;;;4.47;99.55;96624.91;5036256;28;20129;-77
2022/11/06 03:37:18;;;;;;;17.35;10.15;;;;;;;4.45;99.26;96631.38;5036208;28;20412;-77
2022/11/06 03:39:49;;;;;;;15.93;8.90;;;;;;;4.42;99.04;96629.22;5037070;28;20049;-78
2022/11/06 03:42:23;;;;;;;14.32;9.00;;;;;;;4.39;98.50;96635.16;5035342;28;20041;-79
2022/11/06 03:44:56;;;;;;;15.55;8.52;;;;;;;4.32;98.25;96628.41;5019159;28;20047;-78
2022/11/06 03:47:28;;;;;;;14.80;8.73;;;;;;;4.25;97.76;96633.28;5034811;28;20041;-78
2022/11/06 03:50:01;;;;;;;13.70;8.40;;;;;;;4.17;97.51;96638.13;5034134;28;20038;-80
2022/11/06 03:52:33;;;;;;;17.50;9.30;;;;;;;4.11;97.95;96631.13;5033843;28;20048;-79
2022/11/06 03:55:03;;;;;;;16.92;9.15;;;;;;;4.11;97.77;96630.31;5033544;28;20046;-81
2022/11/06 03:57:36;;;;;;;13.63;8.60;;;;;;;4.10;98.11;96634.09;5033206;28;20053;-80
2022/11/06 04:00:08;;;;;;;16.42;9.20;;;;;;;4.11;98.34;96630.31;5033052;28;20408;-78
2022/11/06 04:02:38;;;;;;;27.77;11.77;;;;;;;4.08;98.31;96633.56;5033561;28;20075;-80
2022/11/06 04:05:09;;;;;;;18.27;10.10;;;;;;;4.07;98.51;96637.31;5032783;28;20041;-80
2022/11/06 04:07:41;;;;;;;17.15;10.10;;;;;;;3.99;98.03;96638.66;5033437;28;20041;-81
2022/11/06 04:15:51;;;;;;;18.65;7.53;;;;;;;3.82;97.82;96638.13;5017700;28;20060;-77
2022/11/06 04:18:19;;;;;;;15.05;8.88;;;;;;;3.81;98.37;96631.09;5032340;28;20075;-79
2022/11/06 04:26:34;;;;;;;67.45;22.80;;;;;;;3.82;99.11;96624.66;5032777;28;20096;-79
2022/11/06 04:26:46;;;;;;;17.70;9.77;;;;;;;3.83;99.06;96627.06;5031715;28;20393;-79
2022/11/06 04:29:26;;;;;;;17.50;10.38;;;;;;;3.81;99.01;96626.53;5032209;28;20049;-79
2022/11/06 04:32:03;;;;;;;18.33;9.95;;;;;;;3.78;98.72;96619.00;5031769;28;20049;-80
2022/11/06 04:34:39;;;;;;;20.63;10.57;;;;;;;3.77;99.00;96621.97;5021215;28;20416;-78
2022/11/06 04:37:13;;;;;;;29.23;10.02;;;;;;;3.73;99.08;96615.47;5030853;28;20103;-79
2022/11/06 04:39:50;;;;;;;56.60;12.60;;;;;;;3.69;99.03;96612.50;5032246;28;20075;-80
2022/11/06 04:42:23;;;;;;;19.40;9.85;;;;;;;3.68;98.98;96618.97;5031415;28;20049;-79
2022/11/06 04:44:55;;;;;;;20.58;10.90;;;;;;;3.64;98.73;96612.50;5014987;28;20065;-80
2022/11/06 04:47:24;;;;;;;16.83;9.27;;;;;;;3.58;98.58;96608.19;5014566;28;20496;-80
2022/11/06 04:49:57;;;;;;;16.10;8.48;;;;;;;3.54;98.97;96601.72;5031492;28;20048;-78
2022/11/06 04:52:27;;;;;;;15.60;8.80;;;;;;;3.54;99.00;96601.72;5048488;28;20041;-79
2022/11/06 04:54:55;;;;;;;15.90;9.20;;;;;;;3.55;99.42;96603.31;5031157;28;20057;-79
2022/11/06 04:57:23;;;;;;;15.98;9.30;;;;;;;3.54;99.12;96607.09;5031209;28;20053;-79
2022/11/06 04:59:49;;;;;;;15.80;8.93;;;;;;;3.52;99.04;96603.88;5032066;28;20037;-80
2022/11/06 05:02:16;;;;;;;18.27;8.95;;;;;;;3.53;98.92;96602.78;5031505;28;20041;-79
2022/11/06 05:04:44;;;;;;;16.63;9.82;;;;;;;3.47;98.37;96603.88;5031371;28;20045;-80
2022/11/06 05:07:13;;;;;;;22.25;8.85;;;;;;;3.44;98.36;96599.00;5031364;28;20049;-78
2022/11/06 05:09:40;;;;;;;43.33;9.88;;;;;;;3.36;98.84;96601.16;5011952;28;20050;-79
2022/11/06 05:12:07;;;;;;;27.70;8.65;;;;;;;3.32;98.67;96593.88;5011926;28;20200;-78
2022/11/06 05:14:33;;;;;;;29.40;8.48;;;;;;;3.38;98.74;96588.22;5031572;28;20756;-78
2022/11/06 05:17:01;;;;;;;40.78;8.57;;;;;;;3.40;99.06;96591.47;5031981;28;20045;-78
2022/11/06 05:19:27;;;;;;;29.45;7.45;;;;;;;3.45;99.49;96587.97;5030737;28;20115;-79
2022/11/06 05:24:40;;;;;;;25.35;8.25;;;;;;;3.50;100.00;96587.16;5030909;28;20141;-80
2022/11/06 05:27:06;;;;;;;43.90;9.02;;;;;;;3.50;100.00;96577.22;5031775;28;20050;-78
2022/11/06 05:29:36;;;;;;;55.53;10.30;;;;;;;3.51;100.00;96580.72;5030864;28;20111;-79
2022/11/06 05:32:02;;;;;;;15.40;8.77;;;;;;;3.56;100.00;96578.03;5031327;28;20046;-80
2022/11/06 05:34:29;;;;;;;12.93;7.80;;;;;;;3.62;100.00;96582.34;5031935;28;20053;-77
2022/11/06 05:36:58;;;;;;;11.35;7.10;;;;;;;3.69;100.00;96580.19;5031685;28;20041;-81
2022/11/06 05:39:24;;;;;;;19.90;7.95;;;;;;;3.74;100.00;96579.38;5031242;28;20038;-80
2022/11/06 05:41:51;;;;;;;11.15;7.18;;;;;;;3.73;100.00;96578.59;5031922;28;20401;-80
2022/11/06 05:44:18;;;;;;;43.17;8.10;;;;;;;3.73;100.00;96583.97;5049077;28;20069;-79
2022/11/06 05:46:44;;;;;;;25.77;7.68;;;;;;;3.77;100.00;96585.06;5013136;28;20053;-79
2022/11/06 05:49:11;;;;;;;32.97;8.60;;;;;;;3.77;100.00;96585.06;5034848;28;20045;-79
2022/11/06 05:51:38;;;;;;;47.17;8.75;;;;;;;3.81;100.00;96586.16;5034890;28;20068;-80
2022/11/06 05:54:06;;;;;;;42.95;8.10;;;;;;;3.83;100.00;96589.38;5034763;28;20132;-80
2022/11/06 05:56:34;;;;;;;37.30;8.93;;;;;;;3.83;99.94;96583.97;5034906;28;20042;-78
2022/11/06 05:59:00;;;;;;;31.42;9.60;;;;;;;3.86;99.97;96588.84;5035147;28;20497;-79
2022/11/06 06:01:27;;;;;;;77.22;28.77;;;;;;;3.86;100.00;96588.84;5034369;28;20046;-80
2022/11/06 06:03:53;;;;;;;23.73;9.07;;;;;;;3.82;100.00;96579.66;5034648;28;20120;-80
2022/11/06 06:06:21;;;;;;;17.60;9.70;;;;;;;3.88;100.00;96585.88;5034778;28;20273;-79
2022/11/06 06:08:47;;;;;;;20.50;9.07;;;;;;;3.93;100.00;96588.56;5036539;28;20038;-79
2022/11/06 06:11:15;;;;;;;19.80;9.90;;;;;;;3.99;100.00;96586.66;5026093;28;20053;-79
2022/11/06 06:13:46;;;;;;;22.30;10.25;;;;;;;4.04;100.00;96579.38;5024758;28;20061;-79
2022/11/06 06:16:13;;;;;;;24.83;10.70;;;;;;;4.06;100.00;96577.22;5039503;28;20048;-80
2022/11/06 06:18:42;;;;;;;78.97;12.10;;;;;;;4.15;100.00;96572.09;5023393;28;20049;-78
2022/11/06 06:21:08;;;;;;;46.20;12.02;;;;;;;4.14;100.00;96573.19;5022221;28;20502;-80
2022/11/06 06:23:35;;;;;;;27.02;11.65;;;;;;;4.15;100.00;96572.09;5031185;28;20056;-80
2022/11/06 06:26:01;;;;;;;40.45;12.43;;;;;;;4.16;100.00;96571.03;5030012;28;20053;-79
2022/11/06 06:28:30;;;;;;;44.15;12.57;;;;;;;4.20;100.00;96566.72;5041963;28;20049;-80
2022/11/06 06:30:57;;;;;;;43.28;16.25;;;;;;;4.25;100.00;96564.00;5052271;28;20057;-79
2022/11/06 06:33:24;;;;;;;27.10;12.88;;;;;;;4.26;100.00;96565.63;5046324;28;20519;-79
2022/11/06 06:35:50;;;;;;;28.42;12.82;;;;;;;4.29;100.00;96564.28;5033554;28;20399;-80
2022/11/06 06:38:17;;;;;;;370.38;103.57;;;;;;;4.34;100.00;96551.59;5037646;28;20045;-79
2022/11/06 06:40:43;;;;;;;189.95;51.45;;;;;;;4.39;100.00;96553.47;5042452;28;20064;-78
2022/11/06 06:43:10;;;;;;;244.25;59.42;;;;;;;4.41;100.00;96552.09;5047517;28;20063;-78
2022/11/06 06:45:38;;;;;;;60.50;13.98;;;;;;;4.50;100.00;96548.88;5054900;28;20049;-78
2022/11/06 06:48:06;;;;;;;56.88;14.88;;;;;;;4.58;100.00;96542.88;5039530;28;20586;-78
2022/11/06 06:50:32;;;;;;;100.57;18.27;;;;;;;4.65;100.00;96535.31;5033100;28;20060;-81
2022/11/06 06:52:59;;;;;;;77.68;17.52;;;;;;;4.70;100.00;96538.00;5032751;28;20053;-78
2022/11/06 06:55:26;;;;;;;88.68;18.42;;;;;;;4.69;100.00;96537.19;5033408;28;20045;-79
2022/11/06 06:57:57;;;;;;;105.55;20.10;;;;;;;4.74;100.00;96549.84;5035033;28;20053;-76
2022/11/06 07:00:24;;;;;;;78.30;17.92;;;;;;;4.82;100.00;96546.59;5033337;28;20639;-78
2022/11/06 07:02:52;;;;;;;104.18;19.73;;;;;;;4.89;100.00;96547.09;5034295;28;20049;-77
2022/11/06 07:05:19;;;;;;;101.65;19.70;;;;;;;4.98;100.00;96540.03;5034233;28;20403;-79
2022/11/06 07:07:46;;;;;;;83.80;21.33;;;;;;;5.04;100.00;96537.31;5032811;28;20056;-79
2022/11/06 07:10:12;;;;;;;107.15;22.85;;;;;;;5.06;100.00;96545.91;5032926;28;20048;-80
2022/11/06 07:12:39;;;;;;;94.75;18.67;;;;;;;5.13;100.00;96541.03;5031776;28;20504;-78
2022/11/06 07:15:07;;;;;;;99.57;18.95;;;;;;;5.14;100.00;96553.44;5030838;28;20059;-78
2022/11/06 07:17:33;;;;;;;115.80;36.03;;;;;;;5.06;100.00;96551.31;5034485;28;20060;-79
2022/11/06 07:20:02;;;;;;;94.47;21.98;;;;;;;5.05;100.00;96550.50;5036985;28;20053;-77
2022/11/06 07:22:29;;;;;;;68.00;21.23;;;;;;;5.03;100.00;96551.88;5038345;28;20045;-78
2022/11/06 07:24:55;;;;;;;81.28;22.02;;;;;;;5.06;100.00;96546.72;5035218;28;20049;-78
2022/11/06 07:27:22;;;;;;;77.30;20.88;;;;;;;5.11;100.00;96548.59;5036654;28;20053;-76
2022/11/06 07:29:48;;;;;;;80.18;19.63;;;;;;;5.22;100.00;96547.47;5034483;28;20045;-80
2022/11/06 07:32:15;;;;;;;73.88;20.52;;;;;;;5.19;100.00;96558.81;5035211;28;20050;-78
2022/11/06 07:34:42;;;;;;;71.35;20.92;;;;;;;5.23;100.00;96567.97;5036253;28;20503;-77
2022/11/06 07:37:10;;;;;;;65.68;18.80;;;;;;;5.23;100.00;96563.38;5035508;28;20052;-79
2022/11/06 07:39:36;;;;;;;73.15;19.33;;;;;;;5.14;100.00;96564.25;5038411;28;20041;-78
2022/11/06 07:42:03;;;;;;;128.27;27.13;;;;;;;5.24;100.00;96556.09;5040231;28;20049;-79
2022/11/06 07:44:30;;;;;;;123.00;24.48;;;;;;;5.31;100.00;96545.78;5057962;28;20821;-78
2022/11/06 07:46:56;;;;;;;76.47;19.80;;;;;;;5.33;100.00;96557.13;5042348;28;20042;-79
2022/11/06 07:49:23;;;;;;;68.90;19.63;;;;;;;5.41;100.00;96564.63;5039044;28;20515;-79
2022/11/06 07:51:49;;;;;;;71.30;18.88;;;;;;;5.47;100.00;96566.19;5043037;28;20052;-78
2022/11/06 07:54:17;;;;;;;65.15;17.30;;;;;;;5.60;100.00;96567.47;5037067;28;20053;-78
2022/11/06 07:56:44;;;;;;;56.88;18.90;;;;;;;5.63;100.00;96560.69;5035101;28;20699;-78
2022/11/06 07:59:10;;;;;;;70.07;17.63;;;;;;;5.70;100.00;96550.41;5034707;28;20512;-78
2022/11/06 08:01:37;;;;;;;43.08;18.40;;;;;;;5.70;100.00;96550.41;5035205;28;20056;-77
2022/11/06 08:04:03;;;;;;;62.85;17.33;;;;;;;5.81;100.00;96543.81;5035544;28;20519;-79
2022/11/06 08:06:30;;;;;;;58.17;16.55;;;;;;;5.85;100.00;96541.38;5034256;28;20049;-80
2022/11/06 08:08:56;;;;;;;62.13;18.10;;;;;;;5.85;100.00;96550.28;5035573;28;20049;-75
2022/11/06 08:11:24;;;;;;;66.75;16.38;;;;;;;5.91;100.00;96546.47;5031189;28;20413;-76
2022/11/06 08:13:51;;;;;;;72.25;17.83;;;;;;;5.93;100.00;96544.28;5038361;28;20049;-77
2022/11/06 08:16:18;;;;;;;53.92;16.08;;;;;;;5.96;100.00;96537.53;5030420;28;20056;-75
2022/11/06 08:18:44;;;;;;;65.60;17.08;;;;;;;5.94;100.00;96534.28;5031032;28;20049;-76
2022/11/06 08:21:10;;;;;;;47.70;15.55;;;;;;;6.02;100.00;96536.38;5041021;28;20054;-82
2022/11/06 08:23:37;;;;;;;36.60;15.10;;;;;;;6.06;100.00;96532.03;5051671;28;20049;-84
2022/11/06 08:26:06;;;;;;;42.15;14.45;;;;;;;6.07;100.00;96527.41;5056480;28;20064;-80
2022/11/06 08:31:10;;;;;;;37.05;14.45;;;;;;;6.19;100.00;96514.31;4924241;26;20029;-82
2022/11/06 08:33:38;;;;;;;37.42;16.20;;;;;;;6.15;100.00;96514.06;5065651;23;20028;-83
2022/11/06 08:41:43;;;;;;;47.80;16.65;;;;;;;6.43;100.00;96498.91;5389103;23;20057;-83
2022/11/06 08:47:05;;;;;;;146.13;25.05;;;;;;;6.61;100.00;96485.72;5186457;23;20019;-83
2022/11/06 08:49:33;;;;;;;;;;;;;;;6.72;100.00;96479.09;4909133;29;20048;-81
2022/11/06 08:52:01;;;;;;;67.70;18.02;;;;;;;6.74;100.00;96477.72;4897780;29;19929;-81
2022/11/06 08:54:28;;;;;;;69.78;17.67;;;;;;;6.83;100.00;96469.75;4898322;29;20069;-84
2022/11/06 08:56:57;;;;;;;59.45;17.52;;;;;;;6.96;100.00;96469.03;4918880;29;20033;-80
2022/11/06 08:59:24;;;;;;;40.55;14.65;;;;;;;7.02;100.00;96473.28;4930919;29;20516;-85
2022/11/06 09:01:51;;;;;;;80.63;20.73;;;;;;;7.03;100.00;96484.91;4898123;23;20045;-81
2022/11/06 09:04:19;;;;;;;70.32;16.58;;;;;;;7.10;100.00;96484.53;4882912;29;20048;-78
2022/11/06 09:06:46;;;;;;;62.30;18.17;;;;;;;7.09;100.00;96478.31;4896122;29;20048;-78
2022/11/06 09:09:14;;;;;;;65.32;18.00;;;;;;;7.14;99.64;96486.38;4887119;29;20144;-77
2022/11/06 09:11:40;;;;;;;124.68;28.90;;;;;;;7.19;99.10;96489.00;4884093;29;20045;-79
2022/11/06 09:14:07;;;;;;;66.72;17.42;;;;;;;7.17;99.42;96490.41;4880000;29;20489;-78
2022/11/06 09:16:33;;;;;;;69.72;18.17;;;;;;;7.21;99.22;96491.44;4885251;29;20053;-79
2022/11/06 09:19:00;;;;;;;83.00;18.95;;;;;;;7.26;98.89;96477.84;4879911;29;20431;-77
2022/11/06 09:21:28;;;;;;;69.82;16.08;;;;;;;7.36;98.64;96477.69;4882850;29;20052;-78
2022/11/06 09:23:56;;;;;;;115.50;18.27;;;;;;;7.48;98.77;96475.31;4882421;29;20041;-78
2022/11/06 09:26:23;;;;;;;87.50;16.15;;;;;;;7.63;98.47;96476.19;4897727;29;20104;-78
2022/11/06 09:28:49;;;;;;;64.60;15.13;;;;;;;7.70;98.78;96460.34;4885438;29;20617;-79
2022/11/06 09:31:16;;;;;;;78.32;16.33;;;;;;;7.87;98.64;96449.72;4901996;29;20067;-79
2022/11/06 09:33:43;;;;;;;84.75;16.95;;;;;;;7.93;98.25;96443.09;4899869;29;20054;-77
2022/11/06 09:36:10;;;;;;;81.75;16.13;;;;;;;7.93;96.17;96437.69;4885106;29;20061;-78
2022/11/06 09:38:38;;;;;;;30.40;14.00;;;;;;;8.08;96.58;96429.28;4887572;29;20056;-82
2022/11/06 09:41:05;;;;;;;63.80;15.77;;;;;;;8.24;95.70;96432.50;4889089;29;20048;-79
2022/11/06 09:43:47;;;;;;;77.57;15.75;;;;;;;8.55;95.60;96421.06;4876772;29;20064;-78
2022/11/06 09:46:21;;;;;;;91.75;15.32;;;;;;;8.58;93.49;96410.41;4895748;29;20056;-78
2022/11/06 09:48:53;;;;;;;63.78;12.77;;;;;;;8.79;91.88;96401.84;4901777;29;20702;-78
2022/11/06 09:51:29;;;;;;;76.93;14.53;;;;;;;8.98;90.39;96402.50;4908464;29;20045;-79
2022/11/06 09:54:03;;;;;;;83.55;14.50;;;;;;;9.13;90.13;96390.47;4898635;29;20289;-80
2022/11/06 09:56:34;;;;;;;462.83;130.13;;;;;;;9.20;88.20;96376.47;4882416;29;20041;-78
2022/11/06 09:59:04;;;;;;;18.98;12.20;;;;;;;9.25;88.35;96373.63;4900477;29;20049;-83
2022/11/06 10:01:41;;;;;;;19.27;11.98;;;;;;;9.34;89.12;96364.44;4902141;29;20055;-83
2022/11/06 10:04:20;;;;;;;20.50;12.45;;;;;;;9.29;87.00;96355.56;4901685;29;20044;-81
2022/11/06 10:06:47;;;;;;;17.45;11.05;;;;;;;9.27;86.69;96347.75;4899746;29;20041;-80
2022/11/06 10:09:16;;;;;;;17.27;11.52;;;;;;;9.37;87.67;96349.41;4900273;29;20080;-82
2022/11/06 10:11:56;;;;;;;12.68;9.25;;;;;;;9.50;85.69;96351.25;4900662;29;20078;-82
2022/11/06 10:14:44;;;;;;;14.68;9.88;;;;;;;9.67;84.85;96351.34;4901932;29;20088;-84
2022/11/06 10:17:22;;;;;;;14.13;9.95;;;;;;;9.71;84.10;96353.44;4902157;29;20518;-82
2022/11/06 10:19:55;;;;;;;14.02;9.68;;;;;;;9.72;83.73;96358.56;4902097;29;20045;-83
2022/11/06 10:22:29;;;;;;;15.35;10.38;;;;;;;9.85;83.39;96343.25;4901063;29;20065;-82
2022/11/06 10:25:08;;;;;;;14.25;9.98;;;;;;;9.91;82.25;96340.09;4905327;29;20051;-81
2022/11/06 10:27:40;;;;;;;13.63;9.63;;;;;;;9.67;82.53;96342.41;4920552;29;20511;-83
2022/11/06 10:30:11;;;;;;;13.13;9.93;;;;;;;9.64;82.82;96338.38;4921273;29;20061;-81
2022/11/06 10:33:00;;;;;;;12.40;9.00;;;;;;;9.53;82.74;96334.31;4920711;29;20127;-80
2022/11/06 10:35:32;;;;;;;11.77;8.02;;;;;;;9.42;82.91;96324.81;4903008;29;20403;-83
2022/11/06 10:40:47;;;;;;;12.13;8.40;;;;;;;9.25;82.06;96320.09;4999386;23;20042;-84
2022/11/06 10:43:24;;;;;;;14.07;10.10;;;;;;;9.13;82.89;96317.94;4976530;28;20052;-84
2022/11/06 10:45:57;;;;;;;92.20;18.08;;;;;;;9.19;82.45;96315.06;4981631;23;20051;-82
2022/11/06 10:51:12;;;;;;;197.25;30.17;;;;;;;9.30;82.05;96309.09;4971738;23;20049;-83
2022/11/06 10:53:52;;;;;;;13.48;7.93;;;;;;;9.30;80.76;96294.72;5015696;28;20022;-83
2022/11/06 10:56:46;;;;;;;58.90;11.18;;;;;;;9.32;80.25;96298.69;5015675;28;20065;-83
2022/11/06 10:59:17;;;;;;;13.15;8.65;;;;;;;9.36;80.14;96302.41;5013281;28;20055;-82
2022/11/06 11:01:44;;;;;;;12.60;8.40;;;;;;;9.65;79.87;96290.22;5014297;28;20514;-82
2022/11/06 11:04:11;;;;;;;58.78;11.90;;;;;;;9.81;78.96;96287.88;5011664;28;20505;-81
2022/11/06 11:06:39;;;;;;;11.85;8.23;;;;;;;9.73;77.22;96272.38;5009817;28;20042;-80
2022/11/06 11:09:30;;;;;;;27.70;12.23;;;;;;;9.97;77.14;96264.63;5000339;28;20078;-81
2022/11/06 11:12:01;;;;;;;16.67;8.73;;;;;;;10.13;78.23;96252.16;4998297;28;20043;-82
2022/11/06 11:14:31;;;;;;;80.47;22.90;;;;;;;10.28;77.78;96258.28;4992779;28;20051;-81
2022/11/06 11:17:01;;;;;;;29.92;12.18;;;;;;;10.35;76.33;96236.84;5011105;28;20056;-80
2022/11/06 11:19:35;;;;;;;16.92;7.18;;;;;;;10.41;75.37;96235.56;5009531;28;20038;-82
